Ord, Nebraska
Current Conditions -  °F | °C
As of 1:53 PM on Saturday 25 Oct 2014 (Local Time) from KODX Reporting Station
Clear Clear  
Wind Chill: 69°   Ceiling: Unl
Heat Index: 69°   Visibility: 10mi
Dew Point: 39°   Wind: 7mph
Humidity: 33%   Direction: 130°SE
Pressure: 30.1"   Gusts: NA
Location:  41.6°N, 98.93°W
Report Text: KODX 251853Z AUTO 13006KT 10SM CLR 21/04 A3010 RMK AO2 SLP196 T02060039
Loading
Personal Weather Stations






























Interactive Weather Map
Tropical Storm Tracking
New forecast layout! Learn more

10-Day Weather Forecast

Advertisements
Track Severe Weather on mobile